Aeroporto :







RITROVATECI SU...

 
LOGIN :

Iscrizione | Disclaimer

   EN    FR    IT 

 









Sommario :    VFR   VFR Marginale   IFR   IFR Intensivo   IFR Molto Intensivo
Visibilità : 
Base nubi : 
>= 8 km
>= 3000ft
5 / 8 km
1000 / 3000 ft
1500m / 5 km
500 / 1000 ft
800 / 1500m
200 / 500 ft
< 800m
< 200 ft
Simboli :   Temporali  Nebbia  Neve Forte  Precipitazioni Forti  Vento > 20 kt






- Altitudine del aeroporto : 56 ft
- Codice IATA : MCP


SBMQ - Macapa Int.

ULTIMO METAR :
  • 050300Z 20001KT 9999 FEW018 25/25 Q1012

METARs OBSOLETI :
  • 050200Z 21002KT CAVOK 26/26 Q1012
  • 050100Z 05004KT 9999 SCT045 27/27 Q1011

TAF TAF SBMQ
Valido dal 05 a 00 ore il 06 a 00 ore UTC


042100Z 0500/0524 08005KT 9999 SCT017 FEW027TCU TN24/0509Z TX29/0518Z
BECMG 0501/0503 06008KT SCT017
BECMG 0506/0508 24005KT BKN010
BECMG 0512/0514 08008KT SCT020
BECMG 0519/0521 SCT020 FEW025TCU RMK PEN
FIR SBAZ / Sudamerica



MetMap, La meteo Aeronautica in un colpo d'occhio ! - Copyright ORBIFLY Dicembre 2007 - Disclaimer

ORBIFLY MET'MAP TEAM :

Programmazione e sviluppo : Alexandra Zaïnal
Concezione : Baudouin d'Aumeries
Aiuto per la programmazione : Marc-Olivier Méhu
Supporto tecnico e logistico : Manuel Goepfert
Aiuto per la traduzione : Arnaldo La Scala

Contatto : metmap@orbifly.com




FONTI E CREDITI :

   NOAA